EGDR - Culdrose
Distance from station: E 5mi, 14km
Updated: 08/15/2018 9:50am
Mostly Cloudy
Mostly Cloudy
 Wind from SW
Wind: SW 20 mph , 31 km/h
Temperature: 64°F , 18°C
Dew Point: 61°F , 16°C
Humidity: 88%
Barometer: 30.03 inHg , 1017 hPa
Clouds: Mostly Cloudy
Visibility: 6 miles , 10 km
Cloud details: Few Clouds 900 ft
Mostly Cloudy 2000 ft
2018/08/15 16:50 EGDR 151650Z AUTO 22017KT 9999 // FEW009/// BKN020/// 18/16 Q1017